createdAt,value
2018-02-01T00:00:04.697Z,0
2018-02-01T00:05:03.314Z,0
2018-02-01T00:10:02.513Z,0
2018-02-01T00:15:03.096Z,0
2018-02-01T00:20:02.702Z,0
2018-02-01T00:25:03.144Z,0
2018-02-01T00:30:02.698Z,0
2018-02-01T00:35:03.174Z,0
2018-02-01T00:40:02.819Z,0
2018-02-01T00:45:03.407Z,0
2018-02-01T00:50:02.879Z,0
2018-02-01T00:55:02.510Z,0
2018-02-01T01:00:02.877Z,0
2018-02-01T01:05:02.687Z,0
2018-02-01T01:10:03.310Z,0
2018-02-01T01:15:02.911Z,0
2018-02-01T01:20:02.573Z,0
2018-02-01T01:25:03.087Z,0
2018-02-01T01:30:02.707Z,0
2018-02-01T01:35:03.347Z,0
2018-02-01T01:40:02.928Z,0
2018-02-01T01:45:02.501Z,0
2018-02-01T01:50:03.063Z,0
2018-02-01T01:55:02.722Z,0
2018-02-01T02:00:03.219Z,0
2018-02-01T02:05:02.793Z,0
2018-02-01T02:10:03.315Z,0
2018-02-01T02:15:02.933Z,0
2018-02-01T02:20:02.625Z,0
2018-02-01T02:25:03.210Z,0
2018-02-01T02:30:02.682Z,0
2018-02-01T02:35:03.167Z,0
2018-02-01T02:40:02.873Z,0
2018-02-01T02:45:02.442Z,0
2018-02-01T02:50:03.170Z,0
2018-02-01T02:55:02.613Z,0
2018-02-01T03:00:03.267Z,0
2018-02-01T03:05:02.787Z,0
2018-02-01T03:10:03.317Z,0
2018-02-01T03:15:02.859Z,0
2018-02-01T03:20:02.465Z,0
2018-02-01T03:25:02.973Z,0
2018-02-01T03:30:02.598Z,0
2018-02-01T03:35:03.231Z,0
2018-02-01T03:40:02.728Z,0
2018-02-01T03:45:03.294Z,0
2018-02-01T03:50:02.745Z,0
2018-02-01T03:55:03.353Z,0
2018-02-01T04:00:02.810Z,0
2018-02-01T04:05:02.486Z,0
2018-02-01T04:10:03.008Z,0
2018-02-01T04:15:03.468Z,0
2018-02-01T04:20:03.065Z,0
2018-02-01T04:25:02.651Z,0
2018-02-01T04:30:03.138Z,0
2018-02-01T04:35:02.708Z,0
2018-02-01T04:40:03.378Z,0
2018-02-01T04:45:02.797Z,0
2018-02-01T04:50:03.464Z,0
2018-02-01T04:55:02.895Z,0
2018-02-01T05:00:03.410Z,0
2018-02-01T05:05:02.971Z,0
2018-02-01T05:10:02.470Z,0
2018-02-01T05:15:02.874Z,0
2018-02-01T05:20:02.509Z,0
2018-02-01T05:25:03.031Z,0
2018-02-01T05:30:02.967Z,0
2018-02-01T05:35:03.418Z,0
2018-02-01T05:40:03.037Z,0
2018-02-01T05:45:02.672Z,0
2018-02-01T05:50:03.272Z,0
2018-02-01T05:55:02.832Z,0
2018-02-01T06:00:03.308Z,0
2018-02-01T06:05:02.793Z,0
2018-02-01T06:10:03.321Z,0
2018-02-01T06:15:02.835Z,0
2018-02-01T06:20:03.355Z,0
2018-02-01T06:25:02.877Z,0
2018-02-01T06:30:02.459Z,0
2018-02-01T06:35:03.045Z,0
2018-02-01T06:40:02.722Z,1
2018-02-01T06:45:03.153Z,2
2018-02-01T06:50:02.734Z,5
2018-02-01T06:55:03.277Z,20
2018-02-01T07:00:03.012Z,39
2018-02-01T07:05:02.560Z,41
2018-02-01T07:10:03.137Z,62
2018-02-01T07:15:02.747Z,176
2018-02-01T07:20:03.199Z,346
2018-02-01T07:25:02.630Z,435
2018-02-01T07:30:03.138Z,574
2018-02-01T07:35:02.706Z,758
2018-02-01T07:40:03.292Z,887
2018-02-01T07:45:02.937Z,1000
2018-02-01T07:50:03.433Z,1000
2018-02-01T07:55:02.894Z,2000
2018-02-01T08:00:03.406Z,2000
2018-02-01T08:05:03.158Z,2000
2018-02-01T08:10:02.727Z,2000
2018-02-01T08:15:03.365Z,2000
2018-02-01T08:20:02.854Z,2000
2018-02-01T08:25:03.372Z,2000
2018-02-01T08:30:03.130Z,2000
2018-02-01T08:35:02.757Z,1000
2018-02-01T08:40:03.506Z,1000
2018-02-01T08:45:03.211Z,2000
2018-02-01T08:50:02.756Z,3000
2018-02-01T08:55:03.422Z,3000
2018-02-01T09:00:02.939Z,4000
2018-02-01T09:05:03.411Z,7000
2018-02-01T09:10:03.116Z,9000
2018-02-01T09:15:02.560Z,3000
2018-02-01T09:20:03.037Z,2000
2018-02-01T09:25:02.613Z,2000
2018-02-01T09:30:03.099Z,1000
2018-02-01T09:35:02.826Z,1000
2018-02-01T09:40:03.335Z,2000
2018-02-01T09:45:02.985Z,2000
2018-02-01T09:50:02.654Z,2000
2018-02-01T09:55:03.196Z,1000
2018-02-01T10:00:02.724Z,1000
2018-02-01T10:05:03.434Z,1000
2018-02-01T10:10:03.198Z,1000
2018-02-01T10:15:02.643Z,1000
2018-02-01T10:20:03.232Z,1000
2018-02-01T10:25:02.798Z,1000
2018-02-01T10:30:03.308Z,2000
2018-02-01T10:35:02.863Z,1000
2018-02-01T10:40:02.531Z,1000
2018-02-01T10:45:03.006Z,2000
2018-02-01T10:50:03.438Z,1000
2018-02-01T10:55:02.886Z,2000
2018-02-01T11:00:03.629Z,2000
2018-02-01T11:05:02.569Z,5000
2018-02-01T11:10:03.338Z,4000
2018-02-01T11:15:02.838Z,864
2018-02-01T11:20:03.406Z,1000
2018-02-01T11:25:02.904Z,2000
2018-02-01T11:30:03.473Z,1000
2018-02-01T11:35:03.091Z,1000
2018-02-01T11:40:02.803Z,1000
2018-02-01T11:45:03.349Z,1000
2018-02-01T11:50:02.911Z,1000
2018-02-01T11:55:03.453Z,1000
2018-02-01T12:00:03.090Z,951
2018-02-01T12:05:02.650Z,1000
2018-02-01T12:10:03.387Z,1000
2018-02-01T12:15:03.056Z,1000
2018-02-01T12:20:02.585Z,1000
2018-02-01T12:25:03.108Z,1000
2018-02-01T12:30:02.673Z,2000
2018-02-01T12:35:02.482Z,2000
2018-02-01T12:40:02.989Z,1000
2018-02-01T12:45:02.628Z,1000
2018-02-01T12:50:03.170Z,2000
2018-02-01T12:55:02.783Z,2000
2018-02-01T13:00:03.279Z,1000
2018-02-01T13:05:02.836Z,865
2018-02-01T13:10:03.408Z,697
2018-02-01T13:15:03.028Z,641
2018-02-01T13:20:02.522Z,520
2018-02-01T13:25:03.162Z,972
2018-02-01T13:30:02.781Z,1000
2018-02-01T13:35:03.228Z,1000
2018-02-01T13:40:02.809Z,1000
2018-02-01T13:45:02.468Z,1000
2018-02-01T13:50:03.146Z,1000
2018-02-01T13:55:02.746Z,977
2018-02-01T14:00:03.466Z,1000
2018-02-01T14:05:02.938Z,1000
2018-02-01T14:10:02.688Z,1000
2018-02-01T14:15:03.398Z,864
2018-02-01T14:20:02.987Z,892
2018-02-01T14:25:02.697Z,947
2018-02-01T14:30:03.308Z,1000
2018-02-01T14:35:03.176Z,1000
2018-02-01T14:40:02.787Z,2000
2018-02-01T14:45:03.354Z,1000
2018-02-01T14:50:03.028Z,2000
2018-02-01T14:55:02.889Z,5000
2018-02-01T15:00:03.426Z,7000
2018-02-01T15:05:02.956Z,6000
2018-02-01T15:10:02.677Z,3000
2018-02-01T15:15:03.134Z,2000
2018-02-01T15:20:02.619Z,1000
2018-02-01T15:25:03.273Z,651
2018-02-01T15:30:02.812Z,648
2018-02-01T15:35:03.469Z,288
2018-02-01T15:40:03.165Z,270
2018-02-01T15:45:02.997Z,126
2018-02-01T15:50:02.473Z,106
2018-02-01T15:55:03.050Z,111
2018-02-01T16:00:02.534Z,68
2018-02-01T16:05:03.006Z,69
2018-02-01T16:10:02.562Z,77
2018-02-01T16:15:02.966Z,81
2018-02-01T16:20:03.445Z,79
2018-02-01T16:25:03.007Z,75
2018-02-01T16:30:02.485Z,65
2018-02-01T16:35:02.954Z,58
2018-02-01T16:40:02.599Z,40
2018-02-01T16:45:03.044Z,22
2018-02-01T16:50:02.673Z,6
2018-02-01T16:55:03.327Z,3
2018-02-01T17:00:02.836Z,1
2018-02-01T17:05:03.380Z,0
2018-02-01T17:10:03.119Z,0
2018-02-01T17:15:02.629Z,0
2018-02-01T17:20:03.115Z,0
2018-02-01T17:25:02.687Z,0
2018-02-01T17:30:03.197Z,0
2018-02-01T17:35:02.808Z,0
2018-02-01T17:40:02.546Z,0
2018-02-01T17:45:02.977Z,0
2018-02-01T17:50:02.525Z,0
2018-02-01T17:55:03.126Z,0
2018-02-01T18:00:02.534Z,0
2018-02-01T18:05:03.138Z,0
2018-02-01T18:10:02.749Z,0
2018-02-01T18:15:03.398Z,0
2018-02-01T18:20:03.063Z,0
2018-02-01T18:25:02.685Z,0
2018-02-01T18:30:03.145Z,0
2018-02-01T18:35:02.585Z,0
2018-02-01T18:40:03.205Z,0
2018-02-01T18:45:02.845Z,0
2018-02-01T18:50:03.363Z,0
2018-02-01T18:55:02.859Z,0
2018-02-01T19:00:03.300Z,0
2018-02-01T19:05:02.944Z,0
2018-02-01T19:10:02.503Z,0
2018-02-01T19:15:03.081Z,0
2018-02-01T19:20:02.649Z,0
2018-02-01T19:25:03.132Z,0
2018-02-01T19:30:02.786Z,0
2018-02-01T19:35:02.454Z,0
2018-02-01T19:40:03.068Z,0
2018-02-01T19:45:02.627Z,0
2018-02-01T19:50:03.148Z,0
2018-02-01T19:55:02.731Z,0
2018-02-01T20:00:03.332Z,0
2018-02-01T20:05:03.095Z,0
2018-02-01T20:10:02.777Z,0
2018-02-01T20:15:03.477Z,0
2018-02-01T20:20:02.966Z,0
2018-02-01T20:25:02.741Z,0
2018-02-01T20:30:03.360Z,0
2018-02-01T20:35:02.850Z,0
2018-02-01T20:40:03.720Z,0
2018-02-01T20:45:03.231Z,0
2018-02-01T20:50:02.901Z,0
2018-02-01T20:55:03.407Z,0
2018-02-01T21:00:02.916Z,0
2018-02-01T21:05:02.535Z,0
2018-02-01T21:10:03.117Z,0
2018-02-01T21:15:02.692Z,0
2018-02-01T21:20:03.159Z,0
2018-02-01T21:25:02.716Z,0
2018-02-01T21:30:03.256Z,0
2018-02-01T21:35:03.106Z,0
2018-02-01T21:40:02.847Z,0
2018-02-01T21:45:03.345Z,0
2018-02-01T21:50:03.020Z,0
2018-02-01T21:55:02.562Z,0
2018-02-01T22:00:03.220Z,0
2018-02-01T22:05:02.698Z,0
2018-02-01T22:10:03.312Z,0
2018-02-01T22:15:02.788Z,0
2018-02-01T22:20:03.266Z,0
2018-02-01T22:25:02.743Z,0
2018-02-01T22:30:03.307Z,0
2018-02-01T22:35:02.896Z,0
2018-02-01T22:40:02.601Z,0
2018-02-01T22:45:03.145Z,0
2018-02-01T22:50:02.653Z,0
2018-02-01T22:55:03.231Z,0
2018-02-01T23:00:02.812Z,0
2018-02-01T23:05:03.396Z,0
2018-02-01T23:10:03.176Z,0
2018-02-01T23:15:02.636Z,0
2018-02-01T23:20:03.418Z,0
2018-02-01T23:25:02.918Z,0
2018-02-01T23:30:03.364Z,0
2018-02-01T23:35:03.008Z,0
2018-02-01T23:40:02.512Z,0
2018-02-01T23:45:03.105Z,0
2018-02-01T23:50:02.700Z,0
2018-02-01T23:55:03.359Z,0
